Official event details

1:10 200MM SEDAN SPEC WEEKLY SPEEDWAY LONGstatus: FINISHED

event logo
Race:from 23.11.2018 [23:00] to 30.11.2018 [22:00]
Class:1:10 Nitro on-road Spec
Track:VRC Super Speedway Long
Direction:  Official O
Series:not selected
Rankings:  1:10 nitro sedans Spec Weekly
Points:Level 2 (1 - 100)

Timetable (click on round name to show round results)

JUST QUALIFYING

Dates: from 23.11.2018 [23:00] to 30.11.2018 [22:00]
Duration: race: 5min, warm up: 1min
Race options: particip.: 999, tries: 50, direction: official, view position: free
Round race format: in groups - pitlane start - sorted overall - Club level

Filter results:       |      |      |  

Event skill rating per member

The skill rating score shows how your average lap time compares with the overal best average lap time and is calculated after first (qualifying) round. Your skill level for this event car class is based on your last 5 skill rating scores.

Pos.Member ClassTries*LapsTimeAvg. lap timerating score
1Stephen HAU  Pro  1 (1)  21  05:01.698  00:14.36610.0   more..
2Manuel WUS  Pro  5 (1)  21  05:05.408  00:14.5439.88   more..
3michael ZappaGB  Pro  2 (2)  21  05:10.286  00:14.7759.72   more..
4Maiko H.DE  Club  13 (13)  21  05:12.482  00:14.8809.65   more..
5Chanyoung H.KR  Pro  1 (1)  20  05:01.038  00:15.0519.55   more..
6Dirk Z.DE  Pro  7 (6)  20  05:01.272  00:15.0639.54   more..
7Christos KGR  Sport  2 (2)  20  05:02.580  00:15.1299.50   more..
8Koller PeterCH  Pro  4 (2)  20  05:02.672  00:15.1339.49   more..
9Karl heinz J.DE  Pro  2 (2)  20  05:03.690  00:15.1849.46   more..
10Pavel MoshkovUA  Club  7 (7)  20  05:04.472  00:15.2239.44   more..
11Gary S.US  Pro  1 (1)  20  05:06.082  00:15.3049.39   more..
12Victor SUS  Pro  3 (2)  20  05:06.634  00:15.3319.37   more..
13Matthias SteiningerAT  Pro  1 (1)  20  05:08.356  00:15.4179.32   more..
14Jordan HuntingAU  Sport  3 (3)  20  05:09.258  00:15.4629.29   more..
15Joe LCA  Club  8 (4)  20  05:10.452  00:15.5229.26   more..
16Stefan SpacilAT  Sport  2 (2)  20  05:11.164  00:15.5589.23   more..
17Ken S.GB  Pro  3 (3)  20  05:11.556  00:15.5779.22   more..
18Harry WGB  Club  1 (1)  20  05:13.592  00:15.6799.16   more..
19Gotzon D.ES  Club  3 (3)  20  05:14.156  00:15.7079.15   more..
20Robert S.GB  Club  9 (5)  20  05:15.378  00:15.7689.11   more..
21Tom KAT  Sport  2 (2)  20  05:15.738  00:15.7869.10   more..
22Vitor FPT  Sport  2 (2)  19  05:01.634  00:15.8759.05   more..
23Kristijan B.HR  Club  50 (30)  19  05:03.262  00:15.9619.00   more..
24Majed ABH  Club  1 (1)  19  05:03.888  00:15.9948.98   more..
25Michael H.US  Club  3 (3)  19  05:04.066  00:16.0038.98   more..
26JG P.FR  Sport  8 (7)  19  05:04.158  00:16.0088.97   more..
27Tom EUS  Pro  2 (2)  19  05:05.964  00:16.1038.92   more..
28Mattia T.IT  Sport  1 (1)  19  05:06.796  00:16.1478.90   more..
29Tony HUS  Club  1 (1)  19  05:07.144  00:16.1658.89   more..
30Karl SZA  Sport  1 (1)  19  05:08.118  00:16.2168.86   more..
31Ryszard M.PL  Pro  1 (1)  19  05:10.014  00:16.3168.81   more..
32Mark CUS  Sport  1 (1)  19  05:10.446  00:16.3398.79   more..
33Raphael G.FR  Sport  1 (1)  19  05:11.414  00:16.3908.77   more..
34Gravina C.IT  Sport  2 (2)  19  05:13.078  00:16.4778.72   more..
35Jaume C.ES  Pro  6 (5)  19  05:15.038  00:16.5808.67   more..
36Matt B.US  Club  3 (3)  18  05:00.012  00:16.6678.62   more..
37Tom RFI  Sport  1 (1)  18  05:02.902  00:16.8278.54   more..
38Lucas MCA  Club  2 (2)  18  05:08.228  00:17.1238.39   more..
39Stephane L.FR  Sport  5 (4)  18  05:12.900  00:17.3838.26   more..
40Jessy R.FR  Sport  2 (1)  18  05:13.384  00:17.4108.25   more..
41Roy Blake R.US  Club  1 (1)  18  05:15.624  00:17.5348.19   more..
42Marino BIT  Club  4 (4)  18  05:19.852  00:17.7698.09   more..
43Leonardo R.AR  Club  1 (1)  14  05:24.086  00:23.1496.21   more..
44Plínio Z.BR  Club  2 (1)  11  05:07.262  00:27.9325.14   more..
 
Translate

Share on Facebook

Share on Twitter